Terminal Aerodrome Forecast
Issued by NWS Twin Cities, MN

Home | Current Version | Previous Version | Graphics & Text | Print | Product List | Glossary On
Versions: 1 2 3 4 5 6 7 8 9 10 11 12 13 14 15 16 17
000
FTUS43 KMPX 290539 AAA
TAFEAU
TAF AMD
KEAU 290539Z 2906/3006 VRB02KT P6SM VCSH SCT025 BKN035
     FM291000 03004KT 3SM BR SCT040 BKN060
     FM291300 05006KT P6SM BKN100=

USA.gov is the U.S. government's official web portal to all federal, state and local government web resources and services.